Time,TemperatureF,DewpointF,PressureIn,WindDirection,WindDirectionDegrees,WindSpeedMPH,WindSpeedGustMPH,Humidity,HourlyPrecipIn,Conditions,Clouds,dailyrainin,SoftwareType,DateUTC
2013-08-16 00:01:00,85.3,49.5,29.94,NNW,338,1.1,1.1,29,0.00,,---,0.00,VWS V14.01,2013-08-16 07:01:00,
2013-08-16 00:06:00,84.9,49.2,29.94,NNW,338,0.0,0.0,29,0.00,,---,0.00,VWS V14.01,2013-08-16 07:06:00,
2013-08-16 00:11:00,84.6,48.8,29.94,SW,225,2.0,2.7,29,0.00,,---,0.00,VWS V14.01,2013-08-16 07:11:00,
2013-08-16 00:16:00,83.8,49.1,29.94,SE,135,1.3,2.7,30,0.00,,---,0.00,VWS V14.01,2013-08-16 07:16:00,
2013-08-16 00:21:00,83.1,48.5,29.94,South,180,0.0,0.0,30,0.00,,---,0.00,VWS V14.01,2013-08-16 07:21:00,
2013-08-16 00:27:00,82.6,48.0,29.94,SSE,158,0.9,0.9,30,0.00,,---,0.00,VWS V14.01,2013-08-16 07:27:00,
2013-08-16 00:32:00,82.0,48.5,29.94,SSE,158,0.0,0.0,31,0.00,,---,0.00,VWS V14.01,2013-08-16 07:32:00,
2013-08-16 00:37:00,81.7,49.0,29.94,SSW,202,0.0,0.0,32,0.00,,---,0.00,VWS V14.01,2013-08-16 07:37:00,
2013-08-16 00:42:00,81.5,49.7,29.94,NNW,338,1.3,1.3,33,0.00,,---,0.00,VWS V14.01,2013-08-16 07:42:00,
2013-08-16 00:47:00,81.3,49.5,29.94,ESE,112,0.0,0.0,33,0.00,,---,0.00,VWS V14.01,2013-08-16 07:47:00,
2013-08-16 00:52:00,81.0,49.2,29.94,ENE,68,1.3,1.3,33,0.00,,---,0.00,VWS V14.01,2013-08-16 07:52:00,
2013-08-16 00:57:00,81.1,50.1,29.94,NNE,22,0.0,0.9,34,0.00,,---,0.00,VWS V14.01,2013-08-16 07:57:00,
2013-08-16 01:02:00,81.0,50.0,29.94,North,0,1.3,2.5,34,0.00,,---,0.00,VWS V14.01,2013-08-16 08:02:00,
2013-08-16 01:07:00,80.8,49.0,29.94,NNW,338,1.3,1.3,33,0.00,,---,0.00,VWS V14.01,2013-08-16 08:07:00,
2013-08-16 01:12:00,80.6,48.9,29.94,NNW,338,0.0,0.0,33,0.00,,---,0.00,VWS V14.01,2013-08-16 08:12:00,
2013-08-16 01:17:00,80.4,49.5,29.94,NNW,338,2.0,2.0,34,0.00,,---,0.00,VWS V14.01,2013-08-16 08:17:00,
2013-08-16 02:20:00,77.9,48.8,29.94,South,180,0.0,0.0,36,0.00,,---,0.00,VWS V14.01,2013-08-16 09:20:00,
2013-08-16 02:25:00,77.7,48.7,29.94,South,180,0.0,0.0,36,0.00,,---,0.00,VWS V14.01,2013-08-16 09:25:00,
2013-08-16 02:30:00,77.4,48.3,29.94,South,180,0.0,0.0,36,0.00,,---,0.00,VWS V14.01,2013-08-16 09:30:00,
2013-08-16 02:35:00,77.4,49.1,29.94,NW,315,1.6,1.6,37,0.00,,---,0.00,VWS V14.01,2013-08-16 09:35:00,
2013-08-16 02:40:00,77.4,49.1,29.94,NW,315,1.3,1.3,37,0.00,,---,0.00,VWS V14.01,2013-08-16 09:40:00,
2013-08-16 02:45:00,77.9,50.3,29.94,WNW,292,0.0,0.0,38,0.00,,---,0.00,VWS V14.01,2013-08-16 09:45:00,
2013-08-16 02:50:00,77.7,49.4,29.94,WNW,292,0.9,0.9,37,0.00,,---,0.00,VWS V14.01,2013-08-16 09:50:00,
2013-08-16 02:56:00,78.1,50.4,29.94,West,270,2.2,2.2,38,0.00,,---,0.00,VWS V14.01,2013-08-16 09:56:00,
2013-08-16 05:58:00,77.5,50.7,29.97,NW,315,0.0,0.0,39,0.00,,---,0.00,VWS V14.01,2013-08-16 12:58:00,
2013-08-16 06:03:00,77.7,50.1,29.97,NNW,338,2.9,2.9,38,0.00,,---,0.00,VWS V14.01,2013-08-16 13:03:00,
2013-08-16 06:08:00,77.9,50.3,29.97,NNW,338,2.7,2.7,38,0.00,,---,0.00,VWS V14.01,2013-08-16 13:08:00,
2013-08-16 06:13:00,77.9,50.3,29.97,NW,315,3.6,3.8,38,0.00,,---,0.00,VWS V14.01,2013-08-16 13:13:00,
2013-08-16 06:18:00,78.4,50.8,29.97,North,0,3.6,3.6,38,0.00,,---,0.00,VWS V14.01,2013-08-16 13:18:00,
2013-08-16 06:23:00,79.0,50.5,29.97,NNW,338,1.3,1.3,37,0.00,,---,0.00,VWS V14.01,2013-08-16 13:23:00,
2013-08-16 06:28:00,79.2,50.7,29.97,North,0,2.7,2.7,37,0.00,,---,0.00,VWS V14.01,2013-08-16 13:28:00,
2013-08-16 06:34:00,79.7,50.4,29.97,NE,45,1.3,1.3,36,0.00,,---,0.00,VWS V14.01,2013-08-16 13:34:00,
2013-08-16 06:39:00,79.9,50.6,29.97,ENE,68,0.0,0.0,36,0.00,,---,0.00,VWS V14.01,2013-08-16 13:39:00,
2013-08-16 06:44:00,80.2,52.3,29.97,East,90,0.0,0.0,38,0.00,,---,0.00,VWS V14.01,2013-08-16 13:44:00,
2013-08-16 06:49:00,81.5,52.7,29.97,East,90,0.0,0.0,37,0.00,,---,0.00,VWS V14.01,2013-08-16 13:49:00,
2013-08-16 06:54:00,81.9,53.8,29.97,East,90,0.0,0.0,38,0.00,,---,0.00,VWS V14.01,2013-08-16 13:54:00,
2013-08-16 06:59:00,82.0,54.7,29.97,SE,135,0.9,0.9,39,0.00,,---,0.00,VWS V14.01,2013-08-16 13:59:00,
2013-08-16 07:04:00,82.0,53.2,29.97,East,90,2.7,2.7,37,0.00,,---,0.00,VWS V14.01,2013-08-16 14:04:00,
2013-08-16 07:09:00,82.4,53.5,29.97,ESE,112,3.1,3.1,37,0.00,,---,0.00,VWS V14.01,2013-08-16 14:09:00,
2013-08-16 07:14:00,82.6,53.0,29.97,East,90,2.0,2.9,36,0.00,,---,0.00,VWS V14.01,2013-08-16 14:14:00,
2013-08-16 07:19:00,82.8,53.1,30.00,WNW,292,2.0,2.0,36,0.00,,---,0.00,VWS V14.01,2013-08-16 14:19:00,
2013-08-16 07:24:00,83.5,53.0,30.00,North,0,1.3,1.3,35,0.00,,---,0.00,VWS V14.01,2013-08-16 14:24:00,
2013-08-16 07:29:00,84.0,54.2,30.00,ESE,112,2.0,2.0,36,0.00,,---,0.00,VWS V14.01,2013-08-16 14:29:00,
2013-08-16 07:35:00,84.9,55.0,30.00,South,180,1.3,1.3,36,0.00,,---,0.00,VWS V14.01,2013-08-16 14:35:00,
2013-08-16 07:40:00,87.4,55.7,30.00,South,180,1.1,1.1,34,0.00,,---,0.00,VWS V14.01,2013-08-16 14:40:00,
2013-08-16 07:45:00,90.1,56.3,30.00,SE,135,2.9,2.9,32,0.00,,---,0.00,VWS V14.01,2013-08-16 14:45:00,
2013-08-16 07:50:00,94.3,59.0,30.00,SE,135,2.5,2.5,31,0.00,,---,0.00,VWS V14.01,2013-08-16 14:50:00,
2013-08-16 07:55:00,97.7,59.1,30.00,ESE,112,3.8,3.8,28,0.00,,---,0.00,VWS V14.01,2013-08-16 14:55:00,
2013-08-16 08:00:00,99.7,58.7,30.00,East,90,3.6,3.6,26,0.00,,---,0.00,VWS V14.01,2013-08-16 15:00:00,
2013-08-16 08:05:00,100.6,58.4,30.00,East,90,2.5,2.5,25,0.00,,---,0.00,VWS V14.01,2013-08-16 15:05:00,
2013-08-16 08:10:00,99.0,54.7,30.00,ENE,68,3.1,3.1,23,0.00,,---,0.00,VWS V14.01,2013-08-16 15:10:00,
2013-08-16 08:15:00,95.4,55.1,30.00,ESE,112,2.7,2.7,26,0.00,,---,0.00,VWS V14.01,2013-08-16 15:15:00,
2013-08-16 08:20:00,97.5,56.9,30.00,SW,225,1.3,1.3,26,0.00,,---,0.00,VWS V14.01,2013-08-16 15:20:00,
2013-08-16 08:25:00,97.7,57.0,30.00,SW,225,1.3,2.5,26,0.00,,---,0.00,VWS V14.01,2013-08-16 15:25:00,
2013-08-16 08:30:00,95.7,55.4,30.00,SW,225,0.9,1.3,26,0.00,,---,0.00,VWS V14.01,2013-08-16 15:30:00,
2013-08-16 08:36:00,95.5,55.2,30.00,SW,225,2.5,2.5,26,0.00,,---,0.00,VWS V14.01,2013-08-16 15:36:00,
2013-08-16 08:41:00,94.6,55.5,30.00,South,180,2.5,2.5,27,0.00,,---,0.00,VWS V14.01,2013-08-16 15:41:00,
2013-08-16 08:46:00,94.3,55.2,30.00,South,180,0.0,1.3,27,0.00,,---,0.00,VWS V14.01,2013-08-16 15:46:00,
2013-08-16 08:51:00,94.1,55.0,30.00,West,270,1.3,1.3,27,0.00,,---,0.00,VWS V14.01,2013-08-16 15:51:00,
2013-08-16 08:56:00,93.7,54.7,30.00,WSW,248,0.0,0.0,27,0.00,,---,0.00,VWS V14.01,2013-08-16 15:56:00,
2013-08-16 09:01:00,93.9,54.9,30.00,SW,225,2.5,2.5,27,0.00,,---,0.00,VWS V14.01,2013-08-16 16:01:00,
2013-08-16 09:06:00,93.9,54.9,30.00,WSW,248,2.2,2.5,27,0.00,,---,0.00,VWS V14.01,2013-08-16 16:06:00,
2013-08-16 09:11:00,94.1,55.0,30.00,ESE,112,0.0,3.8,27,0.00,,---,0.00,VWS V14.01,2013-08-16 16:11:00,
2013-08-16 09:16:00,94.3,55.2,30.00,West,270,2.5,2.5,27,0.00,,---,0.00,VWS V14.01,2013-08-16 16:16:00,
2013-08-16 09:21:00,94.5,55.3,30.00,SSW,202,1.1,1.1,27,0.00,,---,0.00,VWS V14.01,2013-08-16 16:21:00,
2013-08-16 09:26:00,94.5,55.3,30.00,WSW,248,2.2,2.2,27,0.00,,---,0.00,VWS V14.01,2013-08-16 16:26:00,
2013-08-16 09:32:00,94.8,55.7,30.00,South,180,0.0,1.6,27,0.00,,---,0.00,VWS V14.01,2013-08-16 16:32:00,
2013-08-16 09:37:00,95.4,56.1,30.00,SW,225,2.5,2.5,27,0.00,,---,0.00,VWS V14.01,2013-08-16 16:37:00,
2013-08-16 09:42:00,95.7,56.4,30.00,NE,45,2.5,2.5,27,0.00,,---,0.00,VWS V14.01,2013-08-16 16:42:00,
2013-08-16 09:47:00,95.5,56.3,30.00,SSE,158,2.2,3.8,27,0.00,,---,0.00,VWS V14.01,2013-08-16 16:47:00,
2013-08-16 09:52:00,95.9,56.6,30.00,West,270,2.9,2.9,27,0.00,,---,0.00,VWS V14.01,2013-08-16 16:52:00,
2013-08-16 09:57:00,96.4,57.0,30.00,WSW,248,0.9,2.9,27,0.00,,---,0.00,VWS V14.01,2013-08-16 16:57:00,
2013-08-16 10:02:00,96.8,56.3,30.00,SSW,202,1.6,3.1,26,0.00,,---,0.00,VWS V14.01,2013-08-16 17:02:00,
2013-08-16 10:07:00,97.0,56.4,30.00,NW,315,1.6,1.6,26,0.00,,---,0.00,VWS V14.01,2013-08-16 17:07:00,
2013-08-16 10:12:00,97.0,56.4,30.00,ESE,112,0.0,0.0,26,0.00,,---,0.00,VWS V14.01,2013-08-16 17:12:00,
2013-08-16 10:17:00,97.3,56.8,30.00,SE,135,3.1,3.1,26,0.00,,---,0.00,VWS V14.01,2013-08-16 17:17:00,
2013-08-16 10:22:00,97.5,56.9,30.00,WSW,248,1.6,1.6,26,0.00,,---,0.00,VWS V14.01,2013-08-16 17:22:00,
2013-08-16 10:27:00,97.7,56.0,30.00,SW,225,3.1,3.1,25,0.00,,---,0.00,VWS V14.01,2013-08-16 17:27:00,
2013-08-16 10:33:00,97.9,56.1,30.00,East,90,1.6,3.6,25,0.00,,---,0.00,VWS V14.01,2013-08-16 17:33:00,
2013-08-16 10:37:00,98.2,56.4,30.00,West,270,5.6,5.6,25,0.00,,---,0.00,VWS V14.01,2013-08-16 17:37:00,
2013-08-16 10:42:00,98.6,54.4,30.00,SW,225,2.2,3.4,23,0.00,,---,0.00,VWS V14.01,2013-08-16 17:42:00,
2013-08-16 10:47:00,98.8,54.6,30.00,East,90,2.7,3.8,23,0.00,,---,0.00,VWS V14.01,2013-08-16 17:47:00,
2013-08-16 10:53:00,99.0,54.7,30.00,SSW,202,2.9,2.9,23,0.00,,---,0.00,VWS V14.01,2013-08-16 17:53:00,
2013-08-16 10:58:00,99.3,55.0,30.00,South,180,2.0,2.0,23,0.00,,---,0.00,VWS V14.01,2013-08-16 17:58:00,
2013-08-16 11:03:00,99.7,55.3,29.97,SE,135,3.4,3.4,23,0.00,,---,0.00,VWS V14.01,2013-08-16 18:03:00,
2013-08-16 11:08:00,99.9,54.2,29.97,West,270,3.1,3.1,22,0.00,,---,0.00,VWS V14.01,2013-08-16 18:08:00,
2013-08-16 11:14:00,99.7,52.8,29.97,West,270,3.4,3.8,21,0.00,,---,0.00,VWS V14.01,2013-08-16 18:14:00,
2013-08-16 11:20:00,99.5,52.7,29.97,SW,225,0.9,2.7,21,0.00,,---,0.00,VWS V14.01,2013-08-16 18:20:00,
2013-08-16 11:25:00,100.0,51.8,29.97,SW,225,3.8,3.8,20,0.00,,---,0.00,VWS V14.01,2013-08-16 18:25:00,
2013-08-16 11:30:00,99.9,51.7,29.97,North,0,2.5,2.5,20,0.00,,---,0.00,VWS V14.01,2013-08-16 18:30:00,
2013-08-16 11:40:00,100.4,52.1,29.97,SW,225,1.6,2.7,20,0.00,,---,0.00,VWS V14.01,2013-08-16 18:40:00,
2013-08-16 11:48:00,100.6,52.2,29.97,West,270,2.9,2.9,20,0.00,,---,0.00,VWS V14.01,2013-08-16 18:48:00,
2013-08-16 11:53:00,100.8,52.4,29.97,West,270,2.2,4.9,20,0.00,,---,0.00,VWS V14.01,2013-08-16 18:53:00,
2013-08-16 11:59:00,101.1,51.3,29.97,SW,225,1.3,2.9,19,0.00,,---,0.00,VWS V14.01,2013-08-16 18:59:00,
2013-08-16 12:06:00,101.3,51.4,29.97,WSW,248,2.7,2.7,19,0.00,,---,0.00,VWS V14.01,2013-08-16 19:06:00,
2013-08-16 12:16:00,101.8,51.9,29.97,SE,135,3.8,3.8,19,0.00,,---,0.00,VWS V14.01,2013-08-16 19:16:00,
2013-08-16 12:28:00,101.8,50.4,29.97,West,270,1.3,1.3,18,0.00,,---,0.00,VWS V14.01,2013-08-16 19:28:00,
2013-08-16 12:34:00,101.5,51.6,29.94,West,270,3.4,3.4,19,0.00,,---,0.00,VWS V14.01,2013-08-16 19:34:00,
2013-08-16 12:39:00,102.2,50.7,29.94,SW,225,3.8,3.8,18,0.00,,---,0.00,VWS V14.01,2013-08-16 19:39:00,
2013-08-16 12:44:00,102.6,51.0,29.94,South,180,3.4,5.4,18,0.00,,---,0.00,VWS V14.01,2013-08-16 19:44:00,
2013-08-16 12:49:00,102.7,51.1,29.94,South,180,2.0,2.0,18,0.00,,---,0.00,VWS V14.01,2013-08-16 19:49:00,
2013-08-16 12:54:00,103.3,51.6,29.94,WSW,248,1.1,1.1,18,0.00,,---,0.00,VWS V14.01,2013-08-16 19:54:00,
2013-08-16 12:59:00,103.5,51.7,29.94,West,270,3.1,3.1,18,0.00,,---,0.00,VWS V14.01,2013-08-16 19:59:00,
2013-08-16 13:04:00,104.0,52.2,29.94,South,180,3.4,3.4,18,0.00,,---,0.00,VWS V14.01,2013-08-16 20:04:00,
2013-08-16 13:10:00,104.4,50.9,29.94,NNE,22,0.0,0.0,17,0.00,,---,0.00,VWS V14.01,2013-08-16 20:10:00,
2013-08-16 13:15:00,104.7,52.7,29.94,SW,225,2.9,2.9,18,0.00,,---,0.00,VWS V14.01,2013-08-16 20:15:00,
2013-08-16 13:20:00,105.1,51.5,29.94,South,180,3.8,5.6,17,0.00,,---,0.00,VWS V14.01,2013-08-16 20:20:00,
2013-08-16 13:25:00,105.4,51.8,29.94,SSW,202,2.0,2.0,17,0.00,,---,0.00,VWS V14.01,2013-08-16 20:25:00,
2013-08-16 13:30:00,106.0,52.2,29.94,West,270,2.0,2.0,17,0.00,,---,0.00,VWS V14.01,2013-08-16 20:30:00,
2013-08-16 13:35:00,106.3,52.5,29.91,WSW,248,3.1,3.1,17,0.00,,---,0.00,VWS V14.01,2013-08-16 20:35:00,
2013-08-16 13:40:00,106.9,51.3,29.91,SSW,202,2.9,2.9,16,0.00,,---,0.00,VWS V14.01,2013-08-16 20:40:00,
2013-08-16 13:45:00,106.9,51.3,29.91,ESE,112,3.4,3.8,16,0.00,,---,0.00,VWS V14.01,2013-08-16 20:45:00,
2013-08-16 13:50:00,105.8,48.7,29.91,NE,45,7.6,7.6,15,0.00,,---,0.00,VWS V14.01,2013-08-16 20:50:00,
2013-08-16 13:55:00,106.0,50.6,29.91,SSE,158,5.6,5.6,16,0.00,,---,0.00,VWS V14.01,2013-08-16 20:55:00,
2013-08-16 14:00:00,106.5,49.2,29.91,West,270,3.8,4.9,15,0.00,,---,0.00,VWS V14.01,2013-08-16 21:00:00,
2013-08-16 14:05:00,107.1,51.4,29.91,WSW,248,2.9,2.9,16,0.00,,---,0.00,VWS V14.01,2013-08-16 21:05:00,
2013-08-16 14:10:00,107.2,51.6,29.91,ESE,112,2.5,5.6,16,0.00,,---,0.00,VWS V14.01,2013-08-16 21:10:00,
2013-08-16 14:15:00,108.1,50.5,29.91,South,180,2.5,4.3,15,0.00,,---,0.00,VWS V14.01,2013-08-16 21:15:00,
2013-08-16 14:20:00,108.1,50.5,29.91,SSE,158,0.9,2.0,15,0.00,,---,0.00,VWS V14.01,2013-08-16 21:20:00,
2013-08-16 14:25:00,106.7,51.1,29.91,WSW,248,3.8,3.8,16,0.00,,---,0.00,VWS V14.01,2013-08-16 21:25:00,
2013-08-16 14:30:00,105.8,50.4,29.91,NE,45,4.3,4.3,16,0.00,,---,0.00,VWS V14.01,2013-08-16 21:30:00,
2013-08-16 14:36:00,105.1,49.8,29.91,SSE,158,9.8,9.8,16,0.00,,---,0.00,VWS V14.01,2013-08-16 21:36:00,
2013-08-16 14:41:00,104.2,49.1,29.91,South,180,10.3,10.3,16,0.00,,---,0.00,VWS V14.01,2013-08-16 21:41:00,
2013-08-16 14:46:00,103.5,48.6,29.91,SE,135,2.0,2.0,16,0.00,,---,0.00,VWS V14.01,2013-08-16 21:46:00,
2013-08-16 14:51:00,103.3,48.4,29.91,WSW,248,1.6,1.6,16,0.00,,---,0.00,VWS V14.01,2013-08-16 21:51:00,
2013-08-16 14:56:00,103.3,48.4,29.91,NE,45,1.1,2.0,16,0.00,,---,0.00,VWS V14.01,2013-08-16 21:56:00,
2013-08-16 15:01:00,102.6,47.8,29.91,ENE,68,2.0,2.0,16,0.00,,---,0.00,VWS V14.01,2013-08-16 22:01:00,
2013-08-16 15:06:00,102.4,47.7,29.91,SSE,158,0.0,0.0,16,0.00,,---,0.00,VWS V14.01,2013-08-16 22:06:00,
2013-08-16 15:11:00,102.6,47.8,29.91,West,270,0.0,0.0,16,0.00,,---,0.00,VWS V14.01,2013-08-16 22:11:00,
2013-08-16 15:16:00,102.6,47.8,29.91,WNW,292,2.0,2.0,16,0.00,,---,0.00,VWS V14.01,2013-08-16 22:16:00,
2013-08-16 15:21:00,102.6,47.8,29.91,NW,315,4.0,4.0,16,0.00,,---,0.00,VWS V14.01,2013-08-16 22:21:00,
2013-08-16 15:26:00,102.0,47.4,29.91,NW,315,2.7,3.8,16,0.00,,---,0.00,VWS V14.01,2013-08-16 22:26:00,
2013-08-16 15:31:00,101.8,47.3,29.91,ESE,112,2.7,2.7,16,0.00,,---,0.00,VWS V14.01,2013-08-16 22:31:00,
2013-08-16 15:36:00,101.7,47.1,29.88,NE,45,3.6,5.6,16,0.00,,---,0.00,VWS V14.01,2013-08-16 22:36:00,
2013-08-16 15:42:00,101.3,46.8,29.88,North,0,5.8,6.0,16,0.00,,---,0.00,VWS V14.01,2013-08-16 22:42:00,
2013-08-16 15:47:00,101.1,46.7,29.88,NNW,338,5.4,5.4,16,0.00,,---,0.00,VWS V14.01,2013-08-16 22:47:00,
2013-08-16 15:52:00,101.1,46.7,29.88,NNW,338,2.7,4.5,16,0.00,,---,0.00,VWS V14.01,2013-08-16 22:52:00,
2013-08-16 15:57:00,102.0,47.4,29.88,NNW,338,3.8,3.8,16,0.00,,---,0.00,VWS V14.01,2013-08-16 22:57:00,
2013-08-16 16:02:00,102.7,48.0,29.88,NW,315,2.0,2.0,16,0.00,,---,0.00,VWS V14.01,2013-08-16 23:02:00,
2013-08-16 16:07:00,103.5,48.6,29.88,West,270,2.5,3.6,16,0.00,,---,0.00,VWS V14.01,2013-08-16 23:07:00,
2013-08-16 16:12:00,104.0,47.3,29.88,NNW,338,2.2,2.2,15,0.00,,---,0.00,VWS V14.01,2013-08-16 23:12:00,
2013-08-16 16:17:00,104.2,47.4,29.88,NNE,22,2.0,4.9,15,0.00,,---,0.00,VWS V14.01,2013-08-16 23:17:00,
2013-08-16 16:22:00,103.8,48.8,29.88,NW,315,2.5,3.1,16,0.00,,---,0.00,VWS V14.01,2013-08-16 23:22:00,
2013-08-16 16:27:00,103.6,48.7,29.88,NW,315,3.1,3.1,16,0.00,,---,0.00,VWS V14.01,2013-08-16 23:27:00,
2013-08-16 16:32:00,103.6,48.7,29.88,ENE,68,2.7,2.7,16,0.00,,---,0.00,VWS V14.01,2013-08-16 23:32:00,
2013-08-16 16:37:00,103.8,48.8,29.88,NW,315,2.5,2.5,16,0.00,,---,0.00,VWS V14.01,2013-08-16 23:37:00,
2013-08-16 16:42:00,104.2,47.4,29.88,NW,315,1.3,2.5,15,0.00,,---,0.00,VWS V14.01,2013-08-16 23:42:00,
2013-08-16 16:48:00,105.1,48.1,29.88,ESE,112,1.6,1.6,15,0.00,,---,0.00,VWS V14.01,2013-08-16 23:48:00,
2013-08-16 16:53:00,105.1,48.1,29.88,NW,315,0.9,0.9,15,0.00,,---,0.00,VWS V14.01,2013-08-16 23:53:00,
2013-08-16 16:58:00,105.3,48.3,29.88,WSW,248,2.9,2.9,15,0.00,,---,0.00,VWS V14.01,2013-08-16 23:58:00,
2013-08-16 17:03:00,106.0,48.8,29.88,SW,225,1.1,1.1,15,0.00,,---,0.00,VWS V14.01,2013-08-17 00:03:00,
2013-08-16 17:08:00,106.0,48.8,29.88,ESE,112,0.0,0.0,15,0.00,,---,0.00,VWS V14.01,2013-08-17 00:08:00,
2013-08-16 17:13:00,105.8,48.7,29.88,West,270,2.5,6.3,15,0.00,,---,0.00,VWS V14.01,2013-08-17 00:13:00,
2013-08-16 17:18:00,105.8,48.7,29.88,WNW,292,2.7,2.7,15,0.00,,---,0.00,VWS V14.01,2013-08-17 00:18:00,
2013-08-16 17:23:00,105.6,48.5,29.88,WSW,248,2.0,2.0,15,0.00,,---,0.00,VWS V14.01,2013-08-17 00:23:00,
2013-08-16 17:35:00,105.8,48.7,29.88,West,270,3.4,3.4,15,0.00,,---,0.00,VWS V14.01,2013-08-17 00:35:00,
2013-08-16 17:40:00,105.6,48.5,29.88,West,270,2.2,2.7,15,0.00,,---,0.00,VWS V14.01,2013-08-17 00:40:00,
2013-08-16 17:45:00,105.4,48.4,29.88,SW,225,1.6,1.6,15,0.00,,---,0.00,VWS V14.01,2013-08-17 00:45:00,
2013-08-16 17:50:00,104.9,48.0,29.88,South,180,2.7,2.7,15,0.00,,---,0.00,VWS V14.01,2013-08-17 00:50:00,
2013-08-16 17:55:00,104.5,47.7,29.88,SSE,158,0.9,1.1,15,0.00,,---,0.00,VWS V14.01,2013-08-17 00:55:00,
2013-08-16 18:01:00,104.2,47.4,29.88,SSW,202,1.1,1.1,15,0.00,,---,0.00,VWS V14.01,2013-08-17 01:01:00,
2013-08-16 18:06:00,103.6,48.7,29.88,SSW,202,2.9,2.9,16,0.00,,---,0.00,VWS V14.01,2013-08-17 01:06:00,
2013-08-16 18:11:00,103.6,48.7,29.88,SW,225,0.0,3.1,16,0.00,,---,0.00,VWS V14.01,2013-08-17 01:11:00,
2013-08-16 18:16:00,103.3,48.4,29.88,South,180,3.4,3.4,16,0.00,,---,0.00,VWS V14.01,2013-08-17 01:16:00,
2013-08-16 18:21:00,102.2,47.6,29.88,SW,225,10.5,10.5,16,0.00,,---,0.00,VWS V14.01,2013-08-17 01:21:00,
2013-08-16 18:26:00,100.2,47.6,29.88,WSW,248,6.9,6.9,17,0.00,,---,0.00,VWS V14.01,2013-08-17 01:26:00,
2013-08-16 18:31:00,99.1,46.7,29.88,SSW,202,3.4,3.4,17,0.00,,---,0.00,VWS V14.01,2013-08-17 01:31:00,
2013-08-16 18:36:00,98.4,46.1,29.88,SW,225,5.6,5.6,17,0.00,,---,0.00,VWS V14.01,2013-08-17 01:36:00,
2013-08-16 18:41:00,97.2,46.6,29.88,SE,135,7.4,7.4,18,0.00,,---,0.00,VWS V14.01,2013-08-17 01:41:00,
2013-08-16 18:46:00,95.7,46.9,29.88,South,180,1.1,2.5,19,0.00,,---,0.00,VWS V14.01,2013-08-17 01:46:00,
2013-08-16 18:52:00,95.4,46.6,29.91,WSW,248,3.6,3.6,19,0.00,,---,0.00,VWS V14.01,2013-08-17 01:52:00,
2013-08-16 18:57:00,95.0,46.3,29.91,SSE,158,7.4,7.4,19,0.00,,---,0.00,VWS V14.01,2013-08-17 01:57:00,
2013-08-16 19:02:00,94.6,47.4,29.91,East,90,8.5,8.5,20,0.00,,---,0.00,VWS V14.01,2013-08-17 02:02:00,
2013-08-16 19:07:00,89.8,58.5,29.91,SSW,202,10.1,10.7,35,0.13,,---,0.13,VWS V14.01,2013-08-17 02:07:00,
2013-08-16 19:12:00,86.4,54.7,29.91,WSW,248,8.5,8.5,34,0.17,,---,0.17,VWS V14.01,2013-08-17 02:12:00,
2013-08-16 19:17:00,85.8,56.6,29.91,SW,225,4.0,4.0,37,0.17,,---,0.17,VWS V14.01,2013-08-17 02:17:00,
2013-08-16 19:22:00,85.8,54.2,29.91,WSW,248,2.7,2.9,34,0.17,,---,0.17,VWS V14.01,2013-08-17 02:22:00,
2013-08-16 19:27:00,86.7,53.4,29.91,West,270,5.4,8.5,32,0.17,,---,0.17,VWS V14.01,2013-08-17 02:27:00,
2013-08-16 19:32:00,86.5,58.7,29.94,WSW,248,6.5,6.5,39,0.17,,---,0.17,VWS V14.01,2013-08-17 02:32:00,
2013-08-16 19:37:00,84.0,60.4,29.94,WSW,248,3.8,6.5,45,0.21,,---,0.21,VWS V14.01,2013-08-17 02:37:00,
2013-08-16 19:42:00,82.0,59.2,29.94,NNW,338,3.4,4.0,46,0.21,,---,0.21,VWS V14.01,2013-08-17 02:42:00,
2013-08-16 19:48:00,81.0,60.0,29.97,West,270,4.9,5.4,49,0.21,,---,0.21,VWS V14.01,2013-08-17 02:48:00,
2013-08-16 19:53:00,80.6,60.3,29.97,WSW,248,4.0,4.0,50,0.21,,---,0.21,VWS V14.01,2013-08-17 02:53:00,
2013-08-16 19:58:00,79.5,61.4,29.97,NW,315,3.1,3.1,54,0.21,,---,0.21,VWS V14.01,2013-08-17 02:58:00,
2013-08-16 20:03:00,79.0,62.0,29.97,NNW,338,5.8,5.8,56,0.21,,---,0.21,VWS V14.01,2013-08-17 03:03:00,
2013-08-16 20:08:00,78.8,62.3,29.97,NW,315,4.5,4.5,57,0.08,,---,0.21,VWS V14.01,2013-08-17 03:08:00,
2013-08-16 20:13:00,79.2,61.1,30.00,NNW,338,4.0,4.3,54,0.04,,---,0.21,VWS V14.01,2013-08-17 03:13:00,
2013-08-16 20:18:00,79.5,61.4,30.03,NNW,338,3.8,3.8,54,0.04,,---,0.21,VWS V14.01,2013-08-17 03:18:00,
2013-08-16 20:23:00,79.3,60.7,30.03,NW,315,3.1,3.4,53,0.04,,---,0.21,VWS V14.01,2013-08-17 03:23:00,
2013-08-16 20:28:00,79.5,60.4,30.03,North,0,2.5,4.3,52,0.04,,---,0.21,VWS V14.01,2013-08-17 03:28:00,
2013-08-16 20:33:00,79.7,58.9,30.00,NW,315,1.3,2.0,49,0.04,,---,0.21,VWS V14.01,2013-08-17 03:33:00,
2013-08-16 20:38:00,79.9,58.5,30.00,WNW,292,0.0,0.0,48,0.00,,---,0.21,VWS V14.01,2013-08-17 03:38:00,
2013-08-16 20:43:00,79.7,59.4,30.00,East,90,2.0,2.0,50,0.00,,---,0.21,VWS V14.01,2013-08-17 03:43:00,
2013-08-16 20:49:00,79.5,59.3,30.00,East,90,0.0,0.0,50,0.00,,---,0.21,VWS V14.01,2013-08-17 03:49:00,
2013-08-16 20:54:00,79.3,59.1,30.00,SE,135,0.0,0.0,50,0.00,,---,0.21,VWS V14.01,2013-08-17 03:54:00,
2013-08-16 20:59:00,79.7,61.6,30.00,NNW,338,1.3,2.5,54,0.00,,---,0.21,VWS V14.01,2013-08-17 03:59:00,
2013-08-16 21:01:00,79.7,61.1,30.00,NNW,338,1.6,2.7,53,0.00,,---,0.21,VWS V14.01,2013-08-17 04:01:00,
2013-08-16 21:03:00,79.7,60.5,30.00,North,0,2.9,2.9,52,0.00,,---,0.21,VWS V14.01,2013-08-17 04:03:00,
2013-08-16 21:08:00,80.1,60.3,30.00,East,90,2.7,2.7,51,0.00,,---,0.21,VWS V14.01,2013-08-17 04:08:00,
2013-08-16 21:13:00,80.1,60.9,30.00,East,90,3.6,3.6,52,0.00,,---,0.21,VWS V14.01,2013-08-17 04:13:00,
2013-08-16 21:19:00,80.1,60.3,30.00,North,0,5.4,5.4,51,0.00,,---,0.21,VWS V14.01,2013-08-17 04:19:00,
2013-08-16 21:24:00,80.2,59.9,30.00,North,0,3.6,3.6,50,0.00,,---,0.21,VWS V14.01,2013-08-17 04:24:00,
2013-08-16 21:29:00,80.1,60.9,30.00,East,90,1.6,2.9,52,0.00,,---,0.21,VWS V14.01,2013-08-17 04:29:00,
2013-08-16 21:34:00,79.9,60.7,30.00,ESE,112,2.5,2.5,52,0.00,,---,0.21,VWS V14.01,2013-08-17 04:34:00,
2013-08-16 21:39:00,79.9,60.7,30.00,ESE,112,5.8,5.8,52,0.00,,---,0.21,VWS V14.01,2013-08-17 04:39:00,
2013-08-16 21:44:00,79.7,61.6,30.00,ENE,68,3.8,6.0,54,0.00,,---,0.21,VWS V14.01,2013-08-17 04:44:00,
2013-08-16 21:49:00,79.5,62.0,30.00,East,90,3.8,3.8,55,0.00,,---,0.21,VWS V14.01,2013-08-17 04:49:00,
2013-08-16 21:54:00,79.9,61.2,30.00,NNW,338,2.9,3.8,53,0.00,,---,0.21,VWS V14.01,2013-08-17 04:54:00,
2013-08-16 21:59:00,80.6,60.3,30.00,NE,45,2.7,2.7,50,0.00,,---,0.21,VWS V14.01,2013-08-17 04:59:00,
2013-08-16 22:04:00,80.6,60.3,30.00,North,0,1.1,2.5,50,0.00,,---,0.21,VWS V14.01,2013-08-17 05:04:00,
2013-08-16 22:09:00,80.6,60.8,30.00,North,0,4.0,4.0,51,0.00,,---,0.21,VWS V14.01,2013-08-17 05:09:00,
2013-08-16 22:15:00,80.6,61.4,30.00,NNW,338,1.1,1.1,52,0.00,,---,0.21,VWS V14.01,2013-08-17 05:15:00,
2013-08-16 22:20:00,80.4,61.2,30.00,NNW,338,2.5,2.5,52,0.00,,---,0.21,VWS V14.01,2013-08-17 05:20:00,
2013-08-16 22:25:00,80.2,61.6,30.00,NW,315,2.5,2.5,53,0.00,,---,0.21,VWS V14.01,2013-08-17 05:25:00,
2013-08-16 22:30:00,80.2,62.6,30.00,NNW,338,0.0,0.0,55,0.04,,---,0.25,VWS V14.01,2013-08-17 05:30:00,
2013-08-16 22:35:00,80.4,62.3,30.00,North,0,2.7,2.7,54,0.04,,---,0.25,VWS V14.01,2013-08-17 05:35:00,
2013-08-16 22:40:00,80.4,61.2,30.00,North,0,1.1,1.1,52,0.04,,---,0.25,VWS V14.01,2013-08-17 05:40:00,
2013-08-16 22:45:00,80.4,61.7,30.00,North,0,1.6,1.6,53,0.04,,---,0.25,VWS V14.01,2013-08-17 05:45:00,
2013-08-16 22:50:00,80.6,60.8,30.00,SE,135,2.0,2.0,51,0.04,,---,0.25,VWS V14.01,2013-08-17 05:50:00,
2013-08-16 22:55:00,80.4,61.2,30.00,NW,315,2.2,2.2,52,0.04,,---,0.25,VWS V14.01,2013-08-17 05:55:00,
2013-08-16 23:01:00,80.2,61.0,30.00,South,180,1.3,1.3,52,0.04,,---,0.25,VWS V14.01,2013-08-17 06:01:00,
2013-08-16 23:06:00,80.1,60.9,30.00,SSW,202,0.0,0.0,52,0.04,,---,0.25,VWS V14.01,2013-08-17 06:06:00,
2013-08-16 23:11:00,80.1,61.4,30.00,SSW,202,0.0,0.0,53,0.04,,---,0.25,VWS V14.01,2013-08-17 06:11:00,
2013-08-16 23:16:00,80.1,61.4,30.00,NNW,338,0.0,0.0,53,0.04,,---,0.25,VWS V14.01,2013-08-17 06:16:00,
2013-08-16 23:21:00,80.1,61.4,30.00,SE,135,0.0,0.0,53,0.04,,---,0.25,VWS V14.01,2013-08-17 06:21:00,
2013-08-16 23:26:00,79.9,60.7,30.00,SSE,158,0.0,1.6,52,0.04,,---,0.25,VWS V14.01,2013-08-17 06:26:00,
2013-08-16 23:31:00,79.7,60.5,30.00,East,90,1.3,1.6,52,0.00,,---,0.25,VWS V14.01,2013-08-17 06:31:00,
2013-08-16 23:36:00,79.9,60.2,30.00,ENE,68,0.0,0.0,51,0.00,,---,0.25,VWS V14.01,2013-08-17 06:36:00,
2013-08-16 23:41:00,79.7,60.0,30.00,SW,225,0.0,0.0,51,0.00,,---,0.25,VWS V14.01,2013-08-17 06:41:00,
2013-08-16 23:46:00,79.7,60.0,30.00,SW,225,0.0,0.0,51,0.00,,---,0.25,VWS V14.01,2013-08-17 06:46:00,
2013-08-16 23:51:00,79.7,61.1,30.00,North,0,2.7,2.7,53,0.00,,---,0.25,VWS V14.01,2013-08-17 06:51:00,
2013-08-16 23:56:00,79.9,61.2,30.00,NW,315,0.0,1.1,53,0.00,,---,0.25,VWS V14.01,2013-08-17 06:56:00,